sensor_id;sensor_type;location;lat;lon;timestamp;pressure;altitude;pressure_sealevel;temperature;humidity
70200;BME280;57587;55.688;37.600;2023-03-13T00:01:00;98077.22;;;-1.80;59.52
70200;BME280;57587;55.688;37.600;2023-03-13T00:03:27;98091.16;;;-1.80;58.74
70200;BME280;57587;55.688;37.600;2023-03-13T00:05:58;98077.78;;;-1.87;59.17
70200;BME280;57587;55.688;37.600;2023-03-13T00:08:28;98085.69;;;-2.06;58.12
70200;BME280;57587;55.688;37.600;2023-03-13T00:10:55;98089.28;;;-1.97;58.86
70200;BME280;57587;55.688;37.600;2023-03-13T00:13:22;98088.56;;;-1.90;59.27
70200;BME280;57587;55.688;37.600;2023-03-13T00:15:58;98096.72;;;-1.93;58.42
70200;BME280;57587;55.688;37.600;2023-03-13T00:18:25;98098.38;;;-1.92;59.16
70200;BME280;57587;55.688;37.600;2023-03-13T00:21:23;98112.44;;;-1.93;58.89
70200;BME280;57587;55.688;37.600;2023-03-13T00:23:50;98116.03;;;-1.94;58.92
70200;BME280;57587;55.688;37.600;2023-03-13T00:26:20;98110.25;;;-1.97;58.52
70200;BME280;57587;55.688;37.600;2023-03-13T00:28:48;98122.13;;;-2.03;59.32
70200;BME280;57587;55.688;37.600;2023-03-13T00:31:25;98128.06;;;-2.01;58.30
70200;BME280;57587;55.688;37.600;2023-03-13T00:33:55;98134.94;;;-2.00;58.28
70200;BME280;57587;55.688;37.600;2023-03-13T00:36:26;98130.41;;;-1.98;58.59
70200;BME280;57587;55.688;37.600;2023-03-13T00:38:54;98122.94;;;-2.02;57.72
70200;BME280;57587;55.688;37.600;2023-03-13T00:41:27;98128.47;;;-2.15;59.06
70200;BME280;57587;55.688;37.600;2023-03-13T00:43:55;98145.44;;;-2.19;58.90
70200;BME280;57587;55.688;37.600;2023-03-13T00:46:25;98147.63;;;-2.15;58.61
70200;BME280;57587;55.688;37.600;2023-03-13T00:48:53;98150.25;;;-2.15;58.52
70200;BME280;57587;55.688;37.600;2023-03-13T00:51:22;98158.81;;;-2.13;58.69
70200;BME280;57587;55.688;37.600;2023-03-13T00:53:54;98155.75;;;-2.08;58.49
70200;BME280;57587;55.688;37.600;2023-03-13T00:56:22;98177.84;;;-2.01;58.13
70200;BME280;57587;55.688;37.600;2023-03-13T00:58:49;98158.09;;;-2.05;57.76
70200;BME280;57587;55.688;37.600;2023-03-13T01:01:24;98173.97;;;-1.97;58.33
70200;BME280;57587;55.688;37.600;2023-03-13T01:03:59;98179.22;;;-1.97;58.06
70200;BME280;57587;55.688;37.600;2023-03-13T01:06:31;98181.72;;;-1.86;59.46
70200;BME280;57587;55.688;37.600;2023-03-13T01:08:59;98192.88;;;-1.83;57.41
70200;BME280;57587;55.688;37.600;2023-03-13T01:11:28;98196.88;;;-1.79;58.37
70200;BME280;57587;55.688;37.600;2023-03-13T01:13:58;98194.94;;;-1.87;57.28
70200;BME280;57587;55.688;37.600;2023-03-13T01:16:27;98201.56;;;-1.93;57.18
70200;BME280;57587;55.688;37.600;2023-03-13T01:18:58;98201.16;;;-1.98;58.16
70200;BME280;57587;55.688;37.600;2023-03-13T01:21:26;98209.84;;;-1.97;58.47
70200;BME280;57587;55.688;37.600;2023-03-13T01:23:54;98222.53;;;-1.93;58.35
70200;BME280;57587;55.688;37.600;2023-03-13T01:26:22;98223.25;;;-2.10;57.62
70200;BME280;57587;55.688;37.600;2023-03-13T01:28:50;98231.91;;;-2.19;57.74
70200;BME280;57587;55.688;37.600;2023-03-13T01:31:30;98222.78;;;-2.25;59.53
70200;BME280;57587;55.688;37.600;2023-03-13T01:34:01;98235.19;;;-2.37;58.89
70200;BME280;57587;55.688;37.600;2023-03-13T01:36:29;98239.59;;;-2.37;58.30
70200;BME280;57587;55.688;37.600;2023-03-13T01:38:58;98249.91;;;-2.45;58.40
70200;BME280;57587;55.688;37.600;2023-03-13T01:41:27;98244.22;;;-2.60;59.52
70200;BME280;57587;55.688;37.600;2023-03-13T01:43:55;98252.47;;;-2.65;59.32
70200;BME280;57587;55.688;37.600;2023-03-13T01:46:26;98256.63;;;-2.62;60.22
70200;BME280;57587;55.688;37.600;2023-03-13T01:52:09;98269.00;;;-2.64;59.43
70200;BME280;57587;55.688;37.600;2023-03-13T02:02:25;98291.97;;;-2.78;59.89
70200;BME280;57587;55.688;37.600;2023-03-13T02:04:56;98294.84;;;-2.81;60.83
70200;BME280;57587;55.688;37.600;2023-03-13T02:07:39;98297.06;;;-2.76;60.10
70200;BME280;57587;55.688;37.600;2023-03-13T02:10:08;98306.72;;;-2.76;59.97
70200;BME280;57587;55.688;37.600;2023-03-13T02:12:38;98308.66;;;-2.79;60.07
70200;BME280;57587;55.688;37.600;2023-03-13T02:15:17;98316.63;;;-2.80;59.80
70200;BME280;57587;55.688;37.600;2023-03-13T02:17:47;98317.97;;;-2.86;60.00
70200;BME280;57587;55.688;37.600;2023-03-13T02:20:16;98318.06;;;-2.97;60.52
70200;BME280;57587;55.688;37.600;2023-03-13T02:22:53;98332.47;;;-3.03;60.47
70200;BME280;57587;55.688;37.600;2023-03-13T02:27:57;98342.69;;;-2.99;61.45
70200;BME280;57587;55.688;37.600;2023-03-13T02:30:28;98344.28;;;-3.08;60.72
70200;BME280;57587;55.688;37.600;2023-03-13T02:32:56;98350.50;;;-3.09;61.18
70200;BME280;57587;55.688;37.600;2023-03-13T02:35:23;98353.22;;;-3.11;60.98
70200;BME280;57587;55.688;37.600;2023-03-13T02:37:56;98353.72;;;-3.17;61.65
70200;BME280;57587;55.688;37.600;2023-03-13T02:40:32;98366.28;;;-3.11;61.69
70200;BME280;57587;55.688;37.600;2023-03-13T02:43:05;98372.59;;;-3.13;60.86
70200;BME280;57587;55.688;37.600;2023-03-13T02:45:33;98367.13;;;-3.10;61.23
70200;BME280;57587;55.688;37.600;2023-03-13T02:48:01;98378.16;;;-3.07;61.43
70200;BME280;57587;55.688;37.600;2023-03-13T02:50:28;98376.75;;;-3.11;61.31
70200;BME280;57587;55.688;37.600;2023-03-13T02:53:14;98379.03;;;-3.06;60.34
70200;BME280;57587;55.688;37.600;2023-03-13T02:55:41;98384.94;;;-3.04;60.55
70200;BME280;57587;55.688;37.600;2023-03-13T02:58:10;98396.38;;;-3.05;60.76
70200;BME280;57587;55.688;37.600;2023-03-13T03:00:37;98397.59;;;-3.09;60.62
70200;BME280;57587;55.688;37.600;2023-03-13T03:03:04;98399.69;;;-3.03;60.39
70200;BME280;57587;55.688;37.600;2023-03-13T03:05:31;98402.09;;;-3.11;59.98
70200;BME280;57587;55.688;37.600;2023-03-13T03:07:58;98407.09;;;-3.08;60.26
70200;BME280;57587;55.688;37.600;2023-03-13T03:10:27;98399.03;;;-3.16;60.97
70200;BME280;57587;55.688;37.600;2023-03-13T03:12:54;98409.63;;;-3.18;60.60
70200;BME280;57587;55.688;37.600;2023-03-13T03:15:21;98408.56;;;-3.15;60.47
70200;BME280;57587;55.688;37.600;2023-03-13T03:17:50;98419.13;;;-3.17;60.31
70200;BME280;57587;55.688;37.600;2023-03-13T03:20:17;98420.53;;;-3.13;60.42
70200;BME280;57587;55.688;37.600;2023-03-13T03:22:45;98428.19;;;-3.21;59.63
70200;BME280;57587;55.688;37.600;2023-03-13T03:25:12;98436.22;;;-3.13;59.74
70200;BME280;57587;55.688;37.600;2023-03-13T03:27:39;98436.63;;;-3.17;59.59
70200;BME280;57587;55.688;37.600;2023-03-13T03:30:08;98451.03;;;-3.23;59.49
70200;BME280;57587;55.688;37.600;2023-03-13T03:32:37;98444.75;;;-3.32;60.40
70200;BME280;57587;55.688;37.600;2023-03-13T03:35:04;98444.22;;;-3.46;59.97
70200;BME280;57587;55.688;37.600;2023-03-13T03:37:32;98454.75;;;-3.37;60.59
70200;BME280;57587;55.688;37.600;2023-03-13T03:40:01;98453.81;;;-3.36;60.55
70200;BME280;57587;55.688;37.600;2023-03-13T03:42:29;98460.81;;;-3.36;59.70
70200;BME280;57587;55.688;37.600;2023-03-13T03:44:56;98460.00;;;-3.37;60.63
70200;BME280;57587;55.688;37.600;2023-03-13T03:47:24;98456.88;;;-3.31;60.05
70200;BME280;57587;55.688;37.600;2023-03-13T03:49:51;98465.44;;;-3.29;59.59
70200;BME280;57587;55.688;37.600;2023-03-13T03:52:18;98460.81;;;-3.25;59.60
70200;BME280;57587;55.688;37.600;2023-03-13T03:54:46;98471.94;;;-3.23;59.44
70200;BME280;57587;55.688;37.600;2023-03-13T03:57:14;98469.59;;;-3.26;59.44
70200;BME280;57587;55.688;37.600;2023-03-13T03:59:43;98478.16;;;-3.24;60.10
70200;BME280;57587;55.688;37.600;2023-03-13T04:02:10;98474.72;;;-3.36;59.58
70200;BME280;57587;55.688;37.600;2023-03-13T04:04:39;98471.88;;;-3.33;59.80
70200;BME280;57587;55.688;37.600;2023-03-13T04:07:16;98490.31;;;-3.34;59.41
70200;BME280;57587;55.688;37.600;2023-03-13T04:09:43;98486.09;;;-3.26;59.76
70200;BME280;57587;55.688;37.600;2023-03-13T04:12:19;98495.69;;;-2.71;59.67
70200;BME280;57587;55.688;37.600;2023-03-13T04:14:49;98492.41;;;-2.01;56.66
70200;BME280;57587;55.688;37.600;2023-03-13T04:17:16;98499.25;;;-1.38;55.25
70200;BME280;57587;55.688;37.600;2023-03-13T04:19:45;98502.63;;;-0.88;53.44
70200;BME280;57587;55.688;37.600;2023-03-13T04:22:12;98514.19;;;-0.13;52.61
70200;BME280;57587;55.688;37.600;2023-03-13T04:24:45;98505.72;;;0.40;49.94
70200;BME280;57587;55.688;37.600;2023-03-13T04:27:12;98510.13;;;1.13;48.50
70200;BME280;57587;55.688;37.600;2023-03-13T04:29:41;98515.16;;;1.60;46.92
70200;BME280;57587;55.688;37.600;2023-03-13T04:32:29;98515.09;;;2.22;45.57
70200;BME280;57587;55.688;37.600;2023-03-13T04:35:04;98520.84;;;2.86;44.31
70200;BME280;57587;55.688;37.600;2023-03-13T04:38:06;98535.47;;;3.39;43.11
70200;BME280;57587;55.688;37.600;2023-03-13T04:40:45;98538.81;;;3.82;42.25
70200;BME280;57587;55.688;37.600;2023-03-13T04:43:37;98549.66;;;4.36;40.76
70200;BME280;57587;55.688;37.600;2023-03-13T04:46:22;98548.31;;;4.96;39.71
70200;BME280;57587;55.688;37.600;2023-03-13T04:49:04;98567.13;;;5.09;38.82
70200;BME280;57587;55.688;37.600;2023-03-13T04:51:37;98558.06;;;5.58;37.83
70200;BME280;57587;55.688;37.600;2023-03-13T04:54:22;98562.25;;;5.98;37.61
70200;BME280;57587;55.688;37.600;2023-03-13T04:56:57;98558.28;;;6.46;36.56
70200;BME280;57587;55.688;37.600;2023-03-13T04:59:32;98558.22;;;6.55;34.64
70200;BME280;57587;55.688;37.600;2023-03-13T05:02:32;98567.84;;;7.00;36.27
70200;BME280;57587;55.688;37.600;2023-03-13T05:05:18;98578.00;;;7.48;35.01
70200;BME280;57587;55.688;37.600;2023-03-13T05:08:11;98569.00;;;7.70;34.86
70200;BME280;57587;55.688;37.600;2023-03-13T05:10:58;98576.84;;;8.21;31.90
70200;BME280;57587;55.688;37.600;2023-03-13T05:13:41;98585.97;;;8.34;32.50
70200;BME280;57587;55.688;37.600;2023-03-13T05:16:15;98594.53;;;8.85;32.50
70200;BME280;57587;55.688;37.600;2023-03-13T05:19:14;98594.34;;;9.35;31.28
70200;BME280;57587;55.688;37.600;2023-03-13T05:21:59;98604.56;;;9.73;30.85
70200;BME280;57587;55.688;37.600;2023-03-13T05:24:51;98604.44;;;10.34;29.58
70200;BME280;57587;55.688;37.600;2023-03-13T05:27:31;98611.00;;;10.65;28.34
70200;BME280;57587;55.688;37.600;2023-03-13T05:30:10;98623.28;;;11.12;28.04
70200;BME280;57587;55.688;37.600;2023-03-13T05:32:51;98613.03;;;11.47;27.71
70200;BME280;57587;55.688;37.600;2023-03-13T05:35:38;98623.75;;;11.99;27.45
70200;BME280;57587;55.688;37.600;2023-03-13T05:38:28;98626.16;;;12.32;26.13
70200;BME280;57587;55.688;37.600;2023-03-13T05:41:25;98628.44;;;12.79;27.59
70200;BME280;57587;55.688;37.600;2023-03-13T05:44:00;98622.38;;;12.90;25.77
70200;BME280;57587;55.688;37.600;2023-03-13T05:47:06;98630.34;;;13.15;24.61
70200;BME280;57587;55.688;37.600;2023-03-13T05:49:39;98630.09;;;13.60;24.81
70200;BME280;57587;55.688;37.600;2023-03-13T05:52:13;98631.63;;;13.98;23.97
70200;BME280;57587;55.688;37.600;2023-03-13T05:55:00;98629.19;;;14.50;23.30
70200;BME280;57587;55.688;37.600;2023-03-13T05:57:47;98633.69;;;14.80;22.63
70200;BME280;57587;55.688;37.600;2023-03-13T06:00:18;98638.59;;;15.06;22.70
70200;BME280;57587;55.688;37.600;2023-03-13T06:03:05;98636.72;;;15.07;21.39
70200;BME280;57587;55.688;37.600;2023-03-13T06:05:37;98640.13;;;15.54;21.25
70200;BME280;57587;55.688;37.600;2023-03-13T06:08:13;98644.56;;;16.01;20.50
70200;BME280;57587;55.688;37.600;2023-03-13T06:10:40;98652.25;;;16.37;21.29
70200;BME280;57587;55.688;37.600;2023-03-13T06:13:07;98659.38;;;16.44;20.02
70200;BME280;57587;55.688;37.600;2023-03-13T06:15:52;98655.56;;;16.90;19.90
70200;BME280;57587;55.688;37.600;2023-03-13T06:18:39;98661.41;;;17.21;18.95
70200;BME280;57587;55.688;37.600;2023-03-13T06:21:06;98663.75;;;17.34;19.02
70200;BME280;57587;55.688;37.600;2023-03-13T06:23:34;98660.56;;;16.98;19.40
70200;BME280;57587;55.688;37.600;2023-03-13T06:26:01;98670.47;;;17.10;19.37
70200;BME280;57587;55.688;37.600;2023-03-13T06:28:28;98674.34;;;17.58;18.61
70200;BME280;57587;55.688;37.600;2023-03-13T06:31:03;98674.69;;;17.83;18.68
70200;BME280;57587;55.688;37.600;2023-03-13T06:33:31;98678.53;;;17.87;18.56
70200;BME280;57587;55.688;37.600;2023-03-13T06:36:00;98689.69;;;18.18;17.79
70200;BME280;57587;55.688;37.600;2023-03-13T06:38:28;98689.47;;;18.52;17.54
70200;BME280;57587;55.688;37.600;2023-03-13T06:40:55;98687.50;;;19.06;17.57
70200;BME280;57587;55.688;37.600;2023-03-13T06:43:22;98685.38;;;19.13;17.47
70200;BME280;57587;55.688;37.600;2023-03-13T06:45:50;98692.97;;;18.74;16.70
70200;BME280;57587;55.688;37.600;2023-03-13T06:48:17;98698.63;;;19.05;17.58
70200;BME280;57587;55.688;37.600;2023-03-13T06:50:45;98703.34;;;18.87;17.41
70200;BME280;57587;55.688;37.600;2023-03-13T06:53:16;98700.06;;;19.18;17.07
70200;BME280;57587;55.688;37.600;2023-03-13T06:55:44;98704.88;;;19.53;17.08
70200;BME280;57587;55.688;37.600;2023-03-13T06:58:12;98703.53;;;19.13;17.32
70200;BME280;57587;55.688;37.600;2023-03-13T07:00:56;98711.59;;;19.93;17.35
70200;BME280;57587;55.688;37.600;2023-03-13T07:03:23;98708.44;;;20.26;16.56
70200;BME280;57587;55.688;37.600;2023-03-13T07:05:55;98715.06;;;21.07;16.26
70200;BME280;57587;55.688;37.600;2023-03-13T07:08:22;98722.94;;;21.14;16.68
70200;BME280;57587;55.688;37.600;2023-03-13T07:10:52;98718.72;;;21.83;16.00
70200;BME280;57587;55.688;37.600;2023-03-13T07:13:19;98721.19;;;21.79;14.62
70200;BME280;57587;55.688;37.600;2023-03-13T07:15:48;98726.19;;;20.65;15.16
70200;BME280;57587;55.688;37.600;2023-03-13T07:18:15;98729.09;;;19.65;16.28
70200;BME280;57587;55.688;37.600;2023-03-13T07:20:42;98741.75;;;19.49;17.90
70200;BME280;57587;55.688;37.600;2023-03-13T07:23:09;98738.06;;;18.36;18.16
70200;BME280;57587;55.688;37.600;2023-03-13T07:25:36;98743.25;;;18.65;17.78
70200;BME280;57587;55.688;37.600;2023-03-13T07:28:04;98753.72;;;17.29;17.90
70200;BME280;57587;55.688;37.600;2023-03-13T07:30:31;98756.19;;;16.80;19.18
70200;BME280;57587;55.688;37.600;2023-03-13T07:32:58;98768.63;;;17.32;19.73
70200;BME280;57587;55.688;37.600;2023-03-13T07:35:25;98766.16;;;16.80;18.61
70200;BME280;57587;55.688;37.600;2023-03-13T07:37:52;98769.91;;;15.70;20.20
70200;BME280;57587;55.688;37.600;2023-03-13T07:40:19;98783.09;;;14.28;21.34
70200;BME280;57587;55.688;37.600;2023-03-13T07:42:46;98784.88;;;13.18;23.09
70200;BME280;57587;55.688;37.600;2023-03-13T07:45:13;98788.38;;;12.23;24.34
70200;BME280;57587;55.688;37.600;2023-03-13T07:47:40;98793.72;;;11.58;25.75
70200;BME280;57587;55.688;37.600;2023-03-13T07:50:07;98801.19;;;11.23;25.35
70200;BME280;57587;55.688;37.600;2023-03-13T07:52:34;98798.09;;;11.46;26.82
70200;BME280;57587;55.688;37.600;2023-03-13T07:55:02;98811.88;;;10.83;25.75
70200;BME280;57587;55.688;37.600;2023-03-13T07:57:29;98807.03;;;10.32;26.59
70200;BME280;57587;55.688;37.600;2023-03-13T07:59:56;98808.09;;;9.96;27.77
70200;BME280;57587;55.688;37.600;2023-03-13T08:02:23;98804.50;;;9.47;28.18
70200;BME280;57587;55.688;37.600;2023-03-13T08:04:51;98808.56;;;9.09;28.92
70200;BME280;57587;55.688;37.600;2023-03-13T08:07:19;98810.28;;;8.95;28.41
70200;BME280;57587;55.688;37.600;2023-03-13T08:09:46;98806.22;;;8.77;29.47
70200;BME280;57587;55.688;37.600;2023-03-13T08:12:13;98808.00;;;8.49;29.10
70200;BME280;57587;55.688;37.600;2023-03-13T08:14:40;98800.38;;;8.31;30.13
70200;BME280;57587;55.688;37.600;2023-03-13T08:17:07;98807.63;;;8.73;29.48
70200;BME280;57587;55.688;37.600;2023-03-13T08:19:34;98818.97;;;9.60;28.22
70200;BME280;57587;55.688;37.600;2023-03-13T08:22:02;98815.59;;;9.73;27.86
70200;BME280;57587;55.688;37.600;2023-03-13T08:24:29;98806.75;;;9.44;28.19
70200;BME280;57587;55.688;37.600;2023-03-13T08:26:56;98821.41;;;8.77;29.25
70200;BME280;57587;55.688;37.600;2023-03-13T08:29:23;98828.56;;;8.04;30.35
70200;BME280;57587;55.688;37.600;2023-03-13T08:31:50;98829.19;;;8.06;30.82
70200;BME280;57587;55.688;37.600;2023-03-13T08:34:18;98821.06;;;7.78;31.39
70200;BME280;57587;55.688;37.600;2023-03-13T08:36:46;98829.78;;;8.38;30.91
70200;BME280;57587;55.688;37.600;2023-03-13T08:39:19;98825.94;;;9.26;30.16
70200;BME280;57587;55.688;37.600;2023-03-13T08:41:46;98828.59;;;8.76;29.93
70200;BME280;57587;55.688;37.600;2023-03-13T08:44:15;98837.75;;;9.38;30.58
70200;BME280;57587;55.688;37.600;2023-03-13T08:46:43;98845.25;;;11.14;28.28
70200;BME280;57587;55.688;37.600;2023-03-13T08:49:11;98841.66;;;13.21;26.20
70200;BME280;57587;55.688;37.600;2023-03-13T08:51:39;98859.88;;;14.13;24.28
70200;BME280;57587;55.688;37.600;2023-03-13T08:54:06;98863.25;;;15.05;23.24
70200;BME280;57587;55.688;37.600;2023-03-13T08:56:33;98856.66;;;15.66;21.98
70200;BME280;57587;55.688;37.600;2023-03-13T08:59:02;98859.47;;;14.94;22.42
70200;BME280;57587;55.688;37.600;2023-03-13T09:01:31;98871.81;;;13.55;25.09
70200;BME280;57587;55.688;37.600;2023-03-13T09:03:59;98863.94;;;13.28;25.30
70200;BME280;57587;55.688;37.600;2023-03-13T09:06:31;98865.16;;;13.57;24.54
70200;BME280;57587;55.688;37.600;2023-03-13T09:08:58;98866.22;;;12.61;26.08
70200;BME280;57587;55.688;37.600;2023-03-13T09:11:25;98877.59;;;11.45;26.24
70200;BME280;57587;55.688;37.600;2023-03-13T09:13:54;98875.66;;;10.66;28.52
70200;BME280;57587;55.688;37.600;2023-03-13T09:16:22;98882.31;;;9.94;29.90
70200;BME280;57587;55.688;37.600;2023-03-13T09:18:51;98888.19;;;9.55;30.55
70200;BME280;57587;55.688;37.600;2023-03-13T09:21:23;98884.53;;;9.13;31.13
70200;BME280;57587;55.688;37.600;2023-03-13T09:23:51;98876.94;;;8.52;32.05
70200;BME280;57587;55.688;37.600;2023-03-13T09:26:19;98884.19;;;7.54;32.80
70200;BME280;57587;55.688;37.600;2023-03-13T09:28:50;98887.63;;;7.25;34.50
70200;BME280;57587;55.688;37.600;2023-03-13T09:31:23;98898.56;;;7.07;35.98
70200;BME280;57587;55.688;37.600;2023-03-13T09:33:51;98911.72;;;6.78;35.27
70200;BME280;57587;55.688;37.600;2023-03-13T09:36:19;98897.50;;;7.16;35.73
70200;BME280;57587;55.688;37.600;2023-03-13T09:38:52;98900.81;;;6.96;35.33
70200;BME280;57587;55.688;37.600;2023-03-13T09:44:26;98906.34;;;6.23;36.67
70200;BME280;57587;55.688;37.600;2023-03-13T09:47:04;98902.63;;;6.02;37.50
70200;BME280;57587;55.688;37.600;2023-03-13T09:49:55;98913.41;;;6.00;38.14
70200;BME280;57587;55.688;37.600;2023-03-13T09:52:30;98912.75;;;6.37;37.48
70200;BME280;57587;55.688;37.600;2023-03-13T09:55:05;98909.47;;;7.35;36.53
70200;BME280;57587;55.688;37.600;2023-03-13T09:57:55;98910.69;;;8.15;35.09
70200;BME280;57587;55.688;37.600;2023-03-13T10:00:36;98912.22;;;8.90;33.95
70200;BME280;57587;55.688;37.600;2023-03-13T10:05:47;98929.22;;;7.18;36.57
70200;BME280;57587;55.688;37.600;2023-03-13T10:08:18;98921.72;;;7.97;34.95
70200;BME280;57587;55.688;37.600;2023-03-13T10:11:02;98929.19;;;7.03;36.69
70200;BME280;57587;55.688;37.600;2023-03-13T10:16:10;98929.63;;;6.13;37.98
70200;BME280;57587;55.688;37.600;2023-03-13T10:18:44;98941.16;;;5.65;39.33
70200;BME280;57587;55.688;37.600;2023-03-13T10:21:19;98945.81;;;5.30;39.09
70200;BME280;57587;55.688;37.600;2023-03-13T10:26:38;98953.09;;;4.10;41.04
70200;BME280;57587;55.688;37.600;2023-03-13T10:29:31;98952.75;;;3.79;42.88
70200;BME280;57587;55.688;37.600;2023-03-13T10:32:02;98959.75;;;3.62;43.77
70200;BME280;57587;55.688;37.600;2023-03-13T10:37:23;98956.41;;;3.86;42.67
70200;BME280;57587;55.688;37.600;2023-03-13T10:39:51;98967.22;;;3.67;42.40
70200;BME280;57587;55.688;37.600;2023-03-13T10:42:30;98963.63;;;3.32;43.74
70200;BME280;57587;55.688;37.600;2023-03-13T10:45:00;98967.94;;;3.33;44.59
70200;BME280;57587;55.688;37.600;2023-03-13T10:47:34;98970.97;;;3.20;43.45
70200;BME280;57587;55.688;37.600;2023-03-13T10:50:03;98982.66;;;2.82;43.78
70200;BME280;57587;55.688;37.600;2023-03-13T10:52:41;98985.88;;;2.76;44.59
70200;BME280;57587;55.688;37.600;2023-03-13T10:55:15;98991.72;;;2.52;44.11
70200;BME280;57587;55.688;37.600;2023-03-13T10:57:54;98979.16;;;2.64;44.54
70200;BME280;57587;55.688;37.600;2023-03-13T11:00:33;98986.66;;;2.86;44.53
70200;BME280;57587;55.688;37.600;2023-03-13T11:03:03;99004.09;;;2.79;44.38
70200;BME280;57587;55.688;37.600;2023-03-13T11:05:40;99011.41;;;2.85;45.83
70200;BME280;57587;55.688;37.600;2023-03-13T11:08:21;99019.94;;;2.79;44.40
70200;BME280;57587;55.688;37.600;2023-03-13T11:11:04;99007.25;;;2.55;45.56
70200;BME280;57587;55.688;37.600;2023-03-13T11:17:02;99022.34;;;2.35;45.91
70200;BME280;57587;55.688;37.600;2023-03-13T11:19:44;99019.50;;;2.19;47.18
70200;BME280;57587;55.688;37.600;2023-03-13T11:22:27;99044.22;;;2.18;48.10
70200;BME280;57587;55.688;37.600;2023-03-13T11:25:03;99039.53;;;2.12;48.33
70200;BME280;57587;55.688;37.600;2023-03-13T11:27:37;99046.63;;;2.11;48.95
70200;BME280;57587;55.688;37.600;2023-03-13T11:32:48;99045.91;;;2.56;48.55
70200;BME280;57587;55.688;37.600;2023-03-13T11:37:49;99051.34;;;2.82;47.79
70200;BME280;57587;55.688;37.600;2023-03-13T11:40:44;99053.94;;;2.64;46.92
70200;BME280;57587;55.688;37.600;2023-03-13T11:43:36;99056.94;;;2.69;46.43
70200;BME280;57587;55.688;37.600;2023-03-13T11:46:24;99062.28;;;2.60;47.33
70200;BME280;57587;55.688;37.600;2023-03-13T11:52:11;99066.66;;;2.51;49.42
70200;BME280;57587;55.688;37.600;2023-03-13T11:55:01;99066.59;;;2.23;51.99
70200;BME280;57587;55.688;37.600;2023-03-13T11:58:03;99089.69;;;2.02;52.84
70200;BME280;57587;55.688;37.600;2023-03-13T12:00:38;99082.34;;;1.96;54.47
70200;BME280;57587;55.688;37.600;2023-03-13T12:03:30;99089.13;;;1.98;56.37
70200;BME280;57587;55.688;37.600;2023-03-13T12:06:02;99098.41;;;2.12;56.17
70200;BME280;57587;55.688;37.600;2023-03-13T12:08:39;99103.25;;;2.26;55.69
70200;BME280;57587;55.688;37.600;2023-03-13T12:11:27;99098.91;;;2.35;55.03
70200;BME280;57587;55.688;37.600;2023-03-13T12:16:41;99105.84;;;2.46;55.08
70200;BME280;57587;55.688;37.600;2023-03-13T12:19:26;99086.16;;;2.30;52.64
70200;BME280;57587;55.688;37.600;2023-03-13T12:21:57;99087.13;;;2.29;52.05
70200;BME280;57587;55.688;37.600;2023-03-13T12:24:39;99094.63;;;2.34;52.54
70200;BME280;57587;55.688;37.600;2023-03-13T12:27:19;99090.53;;;2.49;52.10
70200;BME280;57587;55.688;37.600;2023-03-13T12:30:04;99084.84;;;2.54;51.50
70200;BME280;57587;55.688;37.600;2023-03-13T12:32:37;99099.56;;;2.47;50.89
70200;BME280;57587;55.688;37.600;2023-03-13T12:40:36;99108.53;;;2.17;50.53
70200;BME280;57587;55.688;37.600;2023-03-13T12:43:20;99105.75;;;2.28;50.33
70200;BME280;57587;55.688;37.600;2023-03-13T12:48:37;99118.03;;;1.90;50.41
70200;BME280;57587;55.688;37.600;2023-03-13T12:51:45;99111.91;;;1.90;49.27
70200;BME280;57587;55.688;37.600;2023-03-13T12:57:11;99112.00;;;2.27;49.04
70200;BME280;57587;55.688;37.600;2023-03-13T12:59:46;99116.84;;;2.31;48.73
70200;BME280;57587;55.688;37.600;2023-03-13T13:02:18;99124.03;;;2.49;48.73
70200;BME280;57587;55.688;37.600;2023-03-13T13:04:47;99112.38;;;2.51;48.27
70200;BME280;57587;55.688;37.600;2023-03-13T13:07:28;99117.69;;;2.22;46.97
70200;BME280;57587;55.688;37.600;2023-03-13T13:12:37;99125.63;;;2.13;48.20
70200;BME280;57587;55.688;37.600;2023-03-13T13:18:14;99123.81;;;2.33;48.05
70200;BME280;57587;55.688;37.600;2023-03-13T13:20:45;99132.41;;;2.25;49.15
70200;BME280;57587;55.688;37.600;2023-03-13T13:45:20;99157.47;;;2.01;46.61
70200;BME280;57587;55.688;37.600;2023-03-13T13:47:49;99161.59;;;2.04;45.73
70200;BME280;57587;55.688;37.600;2023-03-13T13:50:27;99154.25;;;1.88;45.22
70200;BME280;57587;55.688;37.600;2023-03-13T13:53:27;99156.88;;;1.78;43.91
70200;BME280;57587;55.688;37.600;2023-03-13T13:55:56;99168.69;;;1.55;44.21
70200;BME280;57587;55.688;37.600;2023-03-13T13:58:27;99153.63;;;1.36;43.96
70200;BME280;57587;55.688;37.600;2023-03-13T14:01:01;99171.50;;;1.32;44.65
70200;BME280;57587;55.688;37.600;2023-03-13T14:03:32;99173.59;;;1.29;45.22
70200;BME280;57587;55.688;37.600;2023-03-13T14:06:17;99167.31;;;1.20;45.40
70200;BME280;57587;55.688;37.600;2023-03-13T14:08:51;99178.94;;;1.08;47.00
70200;BME280;57587;55.688;37.600;2023-03-13T14:11:27;99178.78;;;1.00;46.33
70200;BME280;57587;55.688;37.600;2023-03-13T14:14:16;99174.19;;;1.02;46.90
70200;BME280;57587;55.688;37.600;2023-03-13T14:16:45;99184.19;;;1.08;46.53
70200;BME280;57587;55.688;37.600;2023-03-13T14:19:23;99177.28;;;1.07;46.16
70200;BME280;57587;55.688;37.600;2023-03-13T14:22:00;99184.50;;;1.14;46.79
70200;BME280;57587;55.688;37.600;2023-03-13T14:24:27;99183.25;;;1.09;46.49
70200;BME280;57587;55.688;37.600;2023-03-13T14:26:55;99189.91;;;1.13;46.41
70200;BME280;57587;55.688;37.600;2023-03-13T14:29:23;99183.53;;;1.15;45.79
70200;BME280;57587;55.688;37.600;2023-03-13T14:31:56;99176.84;;;1.11;45.88
70200;BME280;57587;55.688;37.600;2023-03-13T14:34:24;99164.16;;;0.86;45.17
70200;BME280;57587;55.688;37.600;2023-03-13T14:37:00;99200.78;;;0.99;45.41
70200;BME280;57587;55.688;37.600;2023-03-13T14:39:44;99196.50;;;0.98;45.38
70200;BME280;57587;55.688;37.600;2023-03-13T14:42:14;99202.59;;;0.98;45.83
70200;BME280;57587;55.688;37.600;2023-03-13T14:44:44;99199.97;;;0.98;45.45
70200;BME280;57587;55.688;37.600;2023-03-13T14:47:24;99215.66;;;1.00;45.89